sensor_id;sensor_type;location;lat;lon;timestamp;pressure;altitude;pressure_sealevel;temperature;humidity
16806;BME280;8520;50.102;20.010;2023-04-24T00:01:51;97403.75;;;18.32;45.06
16806;BME280;8520;50.102;20.010;2023-04-24T00:04:19;97395.91;;;18.23;45.70
16806;BME280;8520;50.102;20.010;2023-04-24T00:06:48;97396.47;;;18.22;45.21
16806;BME280;8520;50.102;20.010;2023-04-24T00:09:20;97391.63;;;18.22;45.04
16806;BME280;8520;50.102;20.010;2023-04-24T00:11:48;97393.69;;;18.22;44.89
16806;BME280;8520;50.102;20.010;2023-04-24T00:14:18;97394.00;;;18.18;44.84
16806;BME280;8520;50.102;20.010;2023-04-24T00:16:46;97388.81;;;18.15;44.83
16806;BME280;8520;50.102;20.010;2023-04-24T00:19:14;97387.31;;;18.14;44.93
16806;BME280;8520;50.102;20.010;2023-04-24T00:21:43;97386.72;;;18.08;44.81
16806;BME280;8520;50.102;20.010;2023-04-24T00:24:11;97393.44;;;18.04;45.02
16806;BME280;8520;50.102;20.010;2023-04-24T00:26:39;97388.00;;;17.99;44.73
16806;BME280;8520;50.102;20.010;2023-04-24T00:29:07;97385.56;;;17.95;44.46
16806;BME280;8520;50.102;20.010;2023-04-24T00:31:37;97379.81;;;17.93;44.04
16806;BME280;8520;50.102;20.010;2023-04-24T00:34:05;97378.78;;;17.75;45.43
16806;BME280;8520;50.102;20.010;2023-04-24T00:36:34;97378.81;;;17.55;44.42
16806;BME280;8520;50.102;20.010;2023-04-24T00:39:02;97373.16;;;17.68;43.96
16806;BME280;8520;50.102;20.010;2023-04-24T00:41:30;97383.91;;;17.35;48.26
16806;BME280;8520;50.102;20.010;2023-04-24T00:43:58;97372.25;;;17.44;45.79
16806;BME280;8520;50.102;20.010;2023-04-24T00:46:27;97370.81;;;17.51;45.07
16806;BME280;8520;50.102;20.010;2023-04-24T00:48:56;97372.16;;;17.58;45.14
16806;BME280;8520;50.102;20.010;2023-04-24T00:51:24;97369.94;;;17.56;44.97
16806;BME280;8520;50.102;20.010;2023-04-24T00:53:54;97365.84;;;17.57;45.09
16806;BME280;8520;50.102;20.010;2023-04-24T00:56:22;97373.03;;;17.53;45.18
16806;BME280;8520;50.102;20.010;2023-04-24T00:58:51;97368.97;;;17.54;45.06
16806;BME280;8520;50.102;20.010;2023-04-24T01:01:19;97361.16;;;17.52;45.00
16806;BME280;8520;50.102;20.010;2023-04-24T01:03:51;97359.41;;;17.41;45.66
16806;BME280;8520;50.102;20.010;2023-04-24T01:06:21;97361.59;;;17.35;45.53
16806;BME280;8520;50.102;20.010;2023-04-24T01:08:50;97355.13;;;17.40;45.48
16806;BME280;8520;50.102;20.010;2023-04-24T01:11:18;97352.28;;;17.33;45.71
16806;BME280;8520;50.102;20.010;2023-04-24T01:13:47;97356.38;;;17.32;45.13
16806;BME280;8520;50.102;20.010;2023-04-24T01:16:15;97356.88;;;17.23;44.77
16806;BME280;8520;50.102;20.010;2023-04-24T01:18:44;97357.69;;;17.31;45.08
16806;BME280;8520;50.102;20.010;2023-04-24T01:21:13;97356.78;;;17.36;45.03
16806;BME280;8520;50.102;20.010;2023-04-24T01:23:45;97353.78;;;17.34;44.96
16806;BME280;8520;50.102;20.010;2023-04-24T01:26:16;97350.06;;;17.31;45.99
16806;BME280;8520;50.102;20.010;2023-04-24T01:28:47;97340.41;;;17.32;45.95
16806;BME280;8520;50.102;20.010;2023-04-24T01:31:15;97346.66;;;17.25;46.83
16806;BME280;8520;50.102;20.010;2023-04-24T01:33:44;97340.47;;;17.19;47.59
16806;BME280;8520;50.102;20.010;2023-04-24T01:36:13;97337.56;;;16.96;48.36
16806;BME280;8520;50.102;20.010;2023-04-24T01:38:41;97339.41;;;16.94;48.57
16806;BME280;8520;50.102;20.010;2023-04-24T01:41:11;97341.97;;;16.91;47.96
16806;BME280;8520;50.102;20.010;2023-04-24T01:43:39;97329.69;;;16.87;48.12
16806;BME280;8520;50.102;20.010;2023-04-24T01:46:07;97329.56;;;16.72;48.35
16806;BME280;8520;50.102;20.010;2023-04-24T01:48:35;97332.91;;;16.70;47.75
16806;BME280;8520;50.102;20.010;2023-04-24T01:51:03;97330.56;;;16.61;48.41
16806;BME280;8520;50.102;20.010;2023-04-24T01:53:32;97325.81;;;16.48;49.08
16806;BME280;8520;50.102;20.010;2023-04-24T01:56:02;97330.50;;;16.32;49.74
16806;BME280;8520;50.102;20.010;2023-04-24T01:58:32;97320.84;;;15.99;50.39
16806;BME280;8520;50.102;20.010;2023-04-24T02:01:01;97315.25;;;16.13;50.09
16806;BME280;8520;50.102;20.010;2023-04-24T02:03:29;97318.63;;;15.98;50.20
16806;BME280;8520;50.102;20.010;2023-04-24T02:05:58;97317.25;;;15.91;50.29
16806;BME280;8520;50.102;20.010;2023-04-24T02:08:26;97310.44;;;15.79;50.35
16806;BME280;8520;50.102;20.010;2023-04-24T02:10:54;97307.34;;;15.83;49.66
16806;BME280;8520;50.102;20.010;2023-04-24T02:13:22;97296.53;;;15.79;49.40
16806;BME280;8520;50.102;20.010;2023-04-24T02:15:51;97308.16;;;15.91;49.04
16806;BME280;8520;50.102;20.010;2023-04-24T02:18:19;97301.09;;;15.90;49.42
16806;BME280;8520;50.102;20.010;2023-04-24T02:20:50;97296.31;;;15.77;49.62
16806;BME280;8520;50.102;20.010;2023-04-24T02:23:19;97294.69;;;15.82;49.17
16806;BME280;8520;50.102;20.010;2023-04-24T02:25:47;97290.00;;;15.76;49.02
16806;BME280;8520;50.102;20.010;2023-04-24T02:28:16;97283.25;;;15.85;49.14
16806;BME280;8520;50.102;20.010;2023-04-24T02:30:44;97283.06;;;15.83;49.49
16806;BME280;8520;50.102;20.010;2023-04-24T02:33:14;97286.28;;;15.74;49.42
16806;BME280;8520;50.102;20.010;2023-04-24T02:35:42;97279.22;;;15.60;49.41
16806;BME280;8520;50.102;20.010;2023-04-24T02:38:10;97275.78;;;15.67;49.49
16806;BME280;8520;50.102;20.010;2023-04-24T02:40:38;97273.97;;;15.69;49.33
16806;BME280;8520;50.102;20.010;2023-04-24T02:43:06;97273.53;;;15.65;50.10
16806;BME280;8520;50.102;20.010;2023-04-24T02:45:35;97272.50;;;15.68;50.44
16806;BME280;8520;50.102;20.010;2023-04-24T02:48:04;97275.03;;;15.66;50.96
16806;BME280;8520;50.102;20.010;2023-04-24T02:50:34;97270.53;;;15.63;51.45
16806;BME280;8520;50.102;20.010;2023-04-24T02:53:02;97265.66;;;15.56;51.69
16806;BME280;8520;50.102;20.010;2023-04-24T02:55:30;97266.31;;;15.49;51.62
16806;BME280;8520;50.102;20.010;2023-04-24T02:57:59;97259.16;;;15.40;51.83
16806;BME280;8520;50.102;20.010;2023-04-24T03:00:28;97263.66;;;15.30;51.15
16806;BME280;8520;50.102;20.010;2023-04-24T03:02:56;97258.41;;;15.27;50.77
16806;BME280;8520;50.102;20.010;2023-04-24T03:05:25;97267.84;;;15.10;50.79
16806;BME280;8520;50.102;20.010;2023-04-24T03:07:55;97261.44;;;15.15;50.21
16806;BME280;8520;50.102;20.010;2023-04-24T03:10:23;97263.66;;;15.17;50.01
16806;BME280;8520;50.102;20.010;2023-04-24T03:12:51;97269.22;;;15.17;49.96
16806;BME280;8520;50.102;20.010;2023-04-24T03:15:19;97261.44;;;15.02;51.13
16806;BME280;8520;50.102;20.010;2023-04-24T03:17:47;97265.09;;;15.10;51.19
16806;BME280;8520;50.102;20.010;2023-04-24T03:20:15;97271.38;;;15.11;50.65
16806;BME280;8520;50.102;20.010;2023-04-24T03:22:44;97274.69;;;15.09;50.83
16806;BME280;8520;50.102;20.010;2023-04-24T03:25:13;97271.06;;;15.01;50.67
16806;BME280;8520;50.102;20.010;2023-04-24T03:27:41;97256.44;;;15.01;50.46
16806;BME280;8520;50.102;20.010;2023-04-24T03:30:25;97259.97;;;15.01;50.68
16806;BME280;8520;50.102;20.010;2023-04-24T03:32:57;97263.78;;;14.98;50.96
16806;BME280;8520;50.102;20.010;2023-04-24T03:35:29;97265.06;;;14.97;51.18
16806;BME280;8520;50.102;20.010;2023-04-24T03:38:00;97269.13;;;14.96;50.96
16806;BME280;8520;50.102;20.010;2023-04-24T03:40:57;97272.53;;;14.89;51.10
16806;BME280;8520;50.102;20.010;2023-04-24T03:43:44;97263.78;;;14.85;51.34
16806;BME280;8520;50.102;20.010;2023-04-24T03:46:12;97279.72;;;14.84;50.99
16806;BME280;8520;50.102;20.010;2023-04-24T03:48:47;97265.91;;;14.79;51.13
16806;BME280;8520;50.102;20.010;2023-04-24T03:51:17;97270.44;;;14.82;51.17
16806;BME280;8520;50.102;20.010;2023-04-24T03:53:49;97274.25;;;14.79;51.29
16806;BME280;8520;50.102;20.010;2023-04-24T03:56:21;97272.22;;;14.79;51.05
16806;BME280;8520;50.102;20.010;2023-04-24T03:58:49;97271.69;;;14.81;51.01
16806;BME280;8520;50.102;20.010;2023-04-24T04:01:17;97279.19;;;14.73;51.35
16806;BME280;8520;50.102;20.010;2023-04-24T04:04:00;97283.31;;;14.79;51.30
16806;BME280;8520;50.102;20.010;2023-04-24T04:06:29;97275.19;;;14.81;51.51
16806;BME280;8520;50.102;20.010;2023-04-24T04:08:59;97272.97;;;14.80;51.68
16806;BME280;8520;50.102;20.010;2023-04-24T04:11:30;97272.75;;;14.78;51.60
16806;BME280;8520;50.102;20.010;2023-04-24T04:13:59;97269.22;;;14.77;51.47
16806;BME280;8520;50.102;20.010;2023-04-24T04:16:27;97274.91;;;14.85;51.55
16806;BME280;8520;50.102;20.010;2023-04-24T04:19:01;97270.44;;;14.82;51.66
16806;BME280;8520;50.102;20.010;2023-04-24T04:21:30;97274.03;;;14.77;51.64
16806;BME280;8520;50.102;20.010;2023-04-24T04:24:09;97269.75;;;14.89;51.58
16806;BME280;8520;50.102;20.010;2023-04-24T04:26:43;97274.03;;;14.90;51.66
16806;BME280;8520;50.102;20.010;2023-04-24T04:29:21;97264.53;;;14.99;51.83
16806;BME280;8520;50.102;20.010;2023-04-24T04:31:50;97260.47;;;15.00;51.75
16806;BME280;8520;50.102;20.010;2023-04-24T04:34:20;97256.31;;;15.06;51.47
16806;BME280;8520;50.102;20.010;2023-04-24T04:36:50;97254.81;;;15.05;51.66
16806;BME280;8520;50.102;20.010;2023-04-24T04:39:34;97258.03;;;15.09;51.83
16806;BME280;8520;50.102;20.010;2023-04-24T04:42:07;97252.56;;;15.04;52.19
16806;BME280;8520;50.102;20.010;2023-04-24T04:44:39;97253.22;;;15.10;51.66
16806;BME280;8520;50.102;20.010;2023-04-24T04:47:11;97250.53;;;15.17;51.20
16806;BME280;8520;50.102;20.010;2023-04-24T04:49:41;97253.94;;;15.24;51.20
16806;BME280;8520;50.102;20.010;2023-04-24T04:52:20;97253.59;;;15.27;51.17
16806;BME280;8520;50.102;20.010;2023-04-24T04:54:59;97260.56;;;15.34;50.55
16806;BME280;8520;50.102;20.010;2023-04-24T04:57:49;97255.63;;;15.40;50.51
16806;BME280;8520;50.102;20.010;2023-04-24T05:00:18;97259.78;;;15.46;50.71
16806;BME280;8520;50.102;20.010;2023-04-24T05:02:51;97255.38;;;15.51;50.92
16806;BME280;8520;50.102;20.010;2023-04-24T05:05:19;97262.75;;;15.62;50.92
16806;BME280;8520;50.102;20.010;2023-04-24T05:07:48;97261.69;;;15.65;50.67
16806;BME280;8520;50.102;20.010;2023-04-24T05:10:17;97255.88;;;15.76;50.45
16806;BME280;8520;50.102;20.010;2023-04-24T05:12:45;97254.72;;;15.71;50.68
16806;BME280;8520;50.102;20.010;2023-04-24T05:15:15;97261.31;;;15.82;51.18
16806;BME280;8520;50.102;20.010;2023-04-24T05:17:43;97254.78;;;15.92;50.92
16806;BME280;8520;50.102;20.010;2023-04-24T05:20:13;97252.66;;;16.06;50.82
16806;BME280;8520;50.102;20.010;2023-04-24T05:22:42;97256.56;;;15.90;50.72
16806;BME280;8520;50.102;20.010;2023-04-24T05:25:10;97250.53;;;15.99;50.73
16806;BME280;8520;50.102;20.010;2023-04-24T05:27:44;97251.38;;;16.07;50.56
16806;BME280;8520;50.102;20.010;2023-04-24T05:30:16;97245.47;;;16.31;50.40
16806;BME280;8520;50.102;20.010;2023-04-24T05:32:44;97254.47;;;16.45;50.19
16806;BME280;8520;50.102;20.010;2023-04-24T05:35:13;97257.16;;;16.30;49.56
16806;BME280;8520;50.102;20.010;2023-04-24T05:37:41;97254.22;;;16.56;49.51
16806;BME280;8520;50.102;20.010;2023-04-24T05:40:11;97253.78;;;16.73;49.33
16806;BME280;8520;50.102;20.010;2023-04-24T05:42:39;97246.28;;;16.89;49.12
16806;BME280;8520;50.102;20.010;2023-04-24T05:45:08;97248.97;;;17.02;48.92
16806;BME280;8520;50.102;20.010;2023-04-24T05:47:39;97246.22;;;17.10;49.52
16806;BME280;8520;50.102;20.010;2023-04-24T05:50:08;97248.09;;;17.15;49.54
16806;BME280;8520;50.102;20.010;2023-04-24T05:52:36;97239.66;;;17.00;49.55
16806;BME280;8520;50.102;20.010;2023-04-24T05:55:16;97239.88;;;17.02;49.70
16806;BME280;8520;50.102;20.010;2023-04-24T05:57:46;97238.63;;;17.18;50.11
16806;BME280;8520;50.102;20.010;2023-04-24T06:00:15;97235.72;;;17.31;50.15
16806;BME280;8520;50.102;20.010;2023-04-24T06:02:51;97243.34;;;17.31;50.05
16806;BME280;8520;50.102;20.010;2023-04-24T06:05:21;97241.00;;;17.50;50.50
16806;BME280;8520;50.102;20.010;2023-04-24T06:07:52;97235.34;;;17.71;49.05
16806;BME280;8520;50.102;20.010;2023-04-24T06:10:23;97228.47;;;17.80;49.08
16806;BME280;8520;50.102;20.010;2023-04-24T06:12:51;97227.75;;;17.87;49.79
16806;BME280;8520;50.102;20.010;2023-04-24T06:15:23;97229.88;;;17.58;50.72
16806;BME280;8520;50.102;20.010;2023-04-24T06:18:07;97225.16;;;17.96;49.63
16806;BME280;8520;50.102;20.010;2023-04-24T06:20:38;97227.59;;;18.08;49.11
16806;BME280;8520;50.102;20.010;2023-04-24T06:23:08;97230.56;;;18.17;48.80
16806;BME280;8520;50.102;20.010;2023-04-24T06:25:36;97224.97;;;18.10;48.68
16806;BME280;8520;50.102;20.010;2023-04-24T06:28:05;97230.78;;;18.35;48.39
16806;BME280;8520;50.102;20.010;2023-04-24T06:30:34;97225.53;;;18.46;47.99
16806;BME280;8520;50.102;20.010;2023-04-24T06:33:02;97228.56;;;18.48;47.38
16806;BME280;8520;50.102;20.010;2023-04-24T06:35:47;97220.72;;;18.70;46.92
16806;BME280;8520;50.102;20.010;2023-04-24T06:38:15;97225.00;;;18.86;46.77
16806;BME280;8520;50.102;20.010;2023-04-24T06:40:43;97224.41;;;19.03;46.71
16806;BME280;8520;50.102;20.010;2023-04-24T06:43:11;97214.50;;;19.02;46.81
16806;BME280;8520;50.102;20.010;2023-04-24T06:45:41;97220.03;;;19.17;46.38
16806;BME280;8520;50.102;20.010;2023-04-24T06:48:10;97219.06;;;19.30;45.87
16806;BME280;8520;50.102;20.010;2023-04-24T06:50:38;97216.47;;;19.24;45.25
16806;BME280;8520;50.102;20.010;2023-04-24T06:53:08;97204.09;;;19.42;45.56
16806;BME280;8520;50.102;20.010;2023-04-24T06:55:37;97207.75;;;19.68;45.75
16806;BME280;8520;50.102;20.010;2023-04-24T06:58:06;97206.75;;;19.73;45.31
16806;BME280;8520;50.102;20.010;2023-04-24T07:00:34;97207.41;;;19.89;44.54
16806;BME280;8520;50.102;20.010;2023-04-24T07:03:02;97208.41;;;20.09;44.36
16806;BME280;8520;50.102;20.010;2023-04-24T07:05:32;97208.28;;;20.24;44.68
16806;BME280;8520;50.102;20.010;2023-04-24T07:08:02;97208.25;;;20.32;43.36
16806;BME280;8520;50.102;20.010;2023-04-24T07:10:32;97198.97;;;20.46;42.72
16806;BME280;8520;50.102;20.010;2023-04-24T07:13:02;97200.97;;;20.53;42.67
16806;BME280;8520;50.102;20.010;2023-04-24T07:15:30;97195.03;;;20.67;41.91
16806;BME280;8520;50.102;20.010;2023-04-24T07:17:59;97189.72;;;20.78;42.06
16806;BME280;8520;50.102;20.010;2023-04-24T07:20:31;97191.69;;;20.85;41.54
16806;BME280;8520;50.102;20.010;2023-04-24T07:22:59;97192.25;;;20.84;41.43
16806;BME280;8520;50.102;20.010;2023-04-24T07:25:28;97195.72;;;20.92;41.43
16806;BME280;8520;50.102;20.010;2023-04-24T07:27:57;97195.91;;;21.11;41.25
16806;BME280;8520;50.102;20.010;2023-04-24T07:30:25;97189.53;;;21.28;40.78
16806;BME280;8520;50.102;20.010;2023-04-24T07:32:55;97182.34;;;20.83;40.97
16806;BME280;8520;50.102;20.010;2023-04-24T07:35:23;97186.09;;;20.85;40.54
16806;BME280;8520;50.102;20.010;2023-04-24T07:37:52;97186.88;;;21.30;40.18
16806;BME280;8520;50.102;20.010;2023-04-24T07:40:21;97186.34;;;21.59;39.88
16806;BME280;8520;50.102;20.010;2023-04-24T07:42:49;97182.38;;;21.62;39.62
16806;BME280;8520;50.102;20.010;2023-04-24T07:45:18;97174.69;;;21.62;39.70
16806;BME280;8520;50.102;20.010;2023-04-24T07:47:47;97171.84;;;21.80;39.48
16806;BME280;8520;50.102;20.010;2023-04-24T07:50:15;97177.94;;;21.59;39.30
16806;BME280;8520;50.102;20.010;2023-04-24T07:52:43;97180.50;;;21.74;38.74
16806;BME280;8520;50.102;20.010;2023-04-24T07:55:11;97177.59;;;22.09;37.92
16806;BME280;8520;50.102;20.010;2023-04-24T07:57:39;97171.25;;;22.08;38.09
16806;BME280;8520;50.102;20.010;2023-04-24T08:00:08;97170.34;;;22.06;37.37
16806;BME280;8520;50.102;20.010;2023-04-24T08:02:41;97171.53;;;22.12;37.70
16806;BME280;8520;50.102;20.010;2023-04-24T08:05:09;97161.41;;;22.36;37.94
16806;BME280;8520;50.102;20.010;2023-04-24T08:07:38;97165.44;;;21.69;38.70
16806;BME280;8520;50.102;20.010;2023-04-24T08:10:07;97158.72;;;22.28;37.47
16806;BME280;8520;50.102;20.010;2023-04-24T08:12:35;97159.28;;;22.64;37.84
16806;BME280;8520;50.102;20.010;2023-04-24T08:15:05;97151.91;;;22.88;37.84
16806;BME280;8520;50.102;20.010;2023-04-24T08:17:33;97163.47;;;21.89;37.79
16806;BME280;8520;50.102;20.010;2023-04-24T08:20:04;97160.81;;;22.38;37.38
16806;BME280;8520;50.102;20.010;2023-04-24T08:22:32;97154.13;;;22.23;36.86
16806;BME280;8520;50.102;20.010;2023-04-24T08:25:00;97150.84;;;22.64;36.88
16806;BME280;8520;50.102;20.010;2023-04-24T08:27:28;97156.88;;;22.50;36.49
16806;BME280;8520;50.102;20.010;2023-04-24T08:29:56;97148.91;;;22.86;35.94
16806;BME280;8520;50.102;20.010;2023-04-24T08:32:25;97151.16;;;22.97;36.39
16806;BME280;8520;50.102;20.010;2023-04-24T08:34:54;97149.94;;;23.29;35.89
16806;BME280;8520;50.102;20.010;2023-04-24T08:37:25;97149.56;;;23.73;35.90
16806;BME280;8520;50.102;20.010;2023-04-24T08:39:54;97131.22;;;23.62;35.09
16806;BME280;8520;50.102;20.010;2023-04-24T08:42:22;97140.06;;;23.68;34.54
16806;BME280;8520;50.102;20.010;2023-04-24T08:44:51;97140.63;;;23.77;35.09
16806;BME280;8520;50.102;20.010;2023-04-24T08:47:20;97137.09;;;24.17;34.46
16806;BME280;8520;50.102;20.010;2023-04-24T08:49:49;97135.50;;;24.04;34.55
16806;BME280;8520;50.102;20.010;2023-04-24T08:52:18;97139.34;;;23.68;34.39
16806;BME280;8520;50.102;20.010;2023-04-24T08:54:48;97140.84;;;24.00;33.78
16806;BME280;8520;50.102;20.010;2023-04-24T08:57:18;97132.75;;;24.47;33.47
16806;BME280;8520;50.102;20.010;2023-04-24T08:59:47;97141.81;;;24.24;33.92
16806;BME280;8520;50.102;20.010;2023-04-24T09:02:15;97127.72;;;24.45;33.88
16806;BME280;8520;50.102;20.010;2023-04-24T09:04:45;97129.75;;;24.55;33.28
16806;BME280;8520;50.102;20.010;2023-04-24T09:07:16;97127.03;;;23.73;33.04
16806;BME280;8520;50.102;20.010;2023-04-24T09:09:45;97123.00;;;24.60;32.49
16806;BME280;8520;50.102;20.010;2023-04-24T09:12:14;97119.72;;;24.42;32.64
16806;BME280;8520;50.102;20.010;2023-04-24T09:14:42;97122.63;;;24.75;32.25
16806;BME280;8520;50.102;20.010;2023-04-24T09:17:12;97118.41;;;24.43;31.75
16806;BME280;8520;50.102;20.010;2023-04-24T09:19:40;97124.72;;;24.53;31.87
16806;BME280;8520;50.102;20.010;2023-04-24T09:22:09;97117.31;;;24.91;31.94
16806;BME280;8520;50.102;20.010;2023-04-24T09:24:38;97112.84;;;25.09;31.77
16806;BME280;8520;50.102;20.010;2023-04-24T09:27:06;97110.06;;;25.21;31.08
16806;BME280;8520;50.102;20.010;2023-04-24T09:29:38;97103.47;;;24.95;31.56
16806;BME280;8520;50.102;20.010;2023-04-24T09:32:18;97101.69;;;25.11;31.21
16806;BME280;8520;50.102;20.010;2023-04-24T09:34:48;97097.94;;;25.30;31.08
16806;BME280;8520;50.102;20.010;2023-04-24T09:37:27;97100.22;;;25.43;31.53
16806;BME280;8520;50.102;20.010;2023-04-24T09:40:10;97101.00;;;24.89;31.97
16806;BME280;8520;50.102;20.010;2023-04-24T09:42:40;97099.59;;;25.45;31.43
16806;BME280;8520;50.102;20.010;2023-04-24T09:45:12;97085.34;;;25.54;30.99
16806;BME280;8520;50.102;20.010;2023-04-24T09:47:42;97092.66;;;25.36;31.04
16806;BME280;8520;50.102;20.010;2023-04-24T09:50:13;97087.28;;;25.40;31.26
16806;BME280;8520;50.102;20.010;2023-04-24T09:52:44;97087.03;;;25.36;32.33
16806;BME280;8520;50.102;20.010;2023-04-24T09:55:18;97079.63;;;25.19;32.88
16806;BME280;8520;50.102;20.010;2023-04-24T09:57:50;97089.38;;;25.40;31.87
16806;BME280;8520;50.102;20.010;2023-04-24T10:00:23;97073.88;;;25.29;32.70
16806;BME280;8520;50.102;20.010;2023-04-24T10:02:56;97076.56;;;25.15;32.39
16806;BME280;8520;50.102;20.010;2023-04-24T10:05:27;97080.19;;;25.51;32.26
16806;BME280;8520;50.102;20.010;2023-04-24T10:08:01;97061.59;;;24.79;31.98
16806;BME280;8520;50.102;20.010;2023-04-24T10:10:29;97076.94;;;25.33;32.25
16806;BME280;8520;50.102;20.010;2023-04-24T10:12:59;97066.94;;;25.53;31.88
16806;BME280;8520;50.102;20.010;2023-04-24T10:15:29;97067.91;;;25.93;30.88
16806;BME280;8520;50.102;20.010;2023-04-24T10:17:58;97066.31;;;26.02;30.92
16806;BME280;8520;50.102;20.010;2023-04-24T10:20:28;97064.47;;;26.06;30.93
16806;BME280;8520;50.102;20.010;2023-04-24T10:22:58;97059.94;;;25.43;31.79
16806;BME280;8520;50.102;20.010;2023-04-24T10:25:28;97060.09;;;24.78;31.37
16806;BME280;8520;50.102;20.010;2023-04-24T10:27:58;97057.72;;;25.76;31.03
16806;BME280;8520;50.102;20.010;2023-04-24T10:30:29;97051.47;;;25.89;30.61
16806;BME280;8520;50.102;20.010;2023-04-24T10:32:59;97046.19;;;26.07;30.63
16806;BME280;8520;50.102;20.010;2023-04-24T10:35:30;97058.31;;;25.51;30.73
16806;BME280;8520;50.102;20.010;2023-04-24T10:38:02;97052.56;;;25.73;30.92
16806;BME280;8520;50.102;20.010;2023-04-24T10:40:33;97053.50;;;26.24;31.08
16806;BME280;8520;50.102;20.010;2023-04-24T10:43:02;97050.75;;;26.49;30.39
16806;BME280;8520;50.102;20.010;2023-04-24T10:45:34;97050.19;;;26.28;30.60
16806;BME280;8520;50.102;20.010;2023-04-24T10:48:03;97047.41;;;25.46;30.49
16806;BME280;8520;50.102;20.010;2023-04-24T10:50:43;97041.50;;;25.88;29.42
16806;BME280;8520;50.102;20.010;2023-04-24T10:53:16;97050.72;;;25.89;29.55
16806;BME280;8520;50.102;20.010;2023-04-24T10:55:46;97040.53;;;25.84;29.40
16806;BME280;8520;50.102;20.010;2023-04-24T10:58:15;97037.94;;;25.88;29.53
16806;BME280;8520;50.102;20.010;2023-04-24T11:00:55;97045.31;;;25.93;30.01
16806;BME280;8520;50.102;20.010;2023-04-24T11:03:26;97043.72;;;25.55;30.19
16806;BME280;8520;50.102;20.010;2023-04-24T11:06:00;97035.84;;;25.77;30.34
16806;BME280;8520;50.102;20.010;2023-04-24T11:08:30;97034.97;;;25.86;30.31
16806;BME280;8520;50.102;20.010;2023-04-24T11:11:07;97030.31;;;25.79;30.00
16806;BME280;8520;50.102;20.010;2023-04-24T11:14:01;97035.47;;;26.06;29.91
16806;BME280;8520;50.102;20.010;2023-04-24T11:16:32;97029.31;;;26.21;30.88
16806;BME280;8520;50.102;20.010;2023-04-24T11:19:03;97030.47;;;26.78;29.65
16806;BME280;8520;50.102;20.010;2023-04-24T11:21:32;97030.53;;;26.92;29.60
16806;BME280;8520;50.102;20.010;2023-04-24T11:24:23;97031.94;;;27.05;29.48
16806;BME280;8520;50.102;20.010;2023-04-24T11:26:51;97027.00;;;27.05;29.15
16806;BME280;8520;50.102;20.010;2023-04-24T11:29:21;97021.03;;;26.99;29.38
16806;BME280;8520;50.102;20.010;2023-04-24T11:31:52;97028.91;;;27.40;29.09
16806;BME280;8520;50.102;20.010;2023-04-24T11:34:21;97021.16;;;27.15;29.78
16806;BME280;8520;50.102;20.010;2023-04-24T11:36:50;97026.41;;;27.46;29.34
16806;BME280;8520;50.102;20.010;2023-04-24T11:39:18;97024.31;;;27.60;29.01
16806;BME280;8520;50.102;20.010;2023-04-24T11:41:46;97017.31;;;27.75;29.03
16806;BME280;8520;50.102;20.010;2023-04-24T11:44:15;97018.34;;;27.54;29.71
16806;BME280;8520;50.102;20.010;2023-04-24T11:46:48;97011.22;;;28.08;28.35
16806;BME280;8520;50.102;20.010;2023-04-24T11:49:17;97013.84;;;27.63;29.16
16806;BME280;8520;50.102;20.010;2023-04-24T11:51:45;97009.13;;;27.81;28.90
16806;BME280;8520;50.102;20.010;2023-04-24T11:54:19;97007.97;;;28.00;28.93
16806;BME280;8520;50.102;20.010;2023-04-24T11:56:48;97002.66;;;28.50;29.15
16806;BME280;8520;50.102;20.010;2023-04-24T11:59:17;97000.06;;;28.69;29.55
16806;BME280;8520;50.102;20.010;2023-04-24T12:01:45;96995.38;;;28.46;29.05
16806;BME280;8520;50.102;20.010;2023-04-24T12:04:14;97002.44;;;28.45;29.48
16806;BME280;8520;50.102;20.010;2023-04-24T12:07:01;96985.88;;;29.15;27.95
16806;BME280;8520;50.102;20.010;2023-04-24T12:09:40;96991.53;;;29.62;27.75
16806;BME280;8520;50.102;20.010;2023-04-24T12:12:11;96987.63;;;29.69;27.72
16806;BME280;8520;50.102;20.010;2023-04-24T12:14:47;96988.63;;;29.28;27.88
16806;BME280;8520;50.102;20.010;2023-04-24T12:17:16;96983.22;;;29.50;27.53
16806;BME280;8520;50.102;20.010;2023-04-24T12:19:46;96984.03;;;29.53;27.89
16806;BME280;8520;50.102;20.010;2023-04-24T12:22:16;96976.34;;;29.24;28.00
16806;BME280;8520;50.102;20.010;2023-04-24T12:25:00;96977.06;;;29.24;28.56
16806;BME280;8520;50.102;20.010;2023-04-24T12:27:30;96977.41;;;28.42;28.35
16806;BME280;8520;50.102;20.010;2023-04-24T12:30:01;96977.06;;;28.63;28.12
16806;BME280;8520;50.102;20.010;2023-04-24T12:32:29;96973.28;;;28.59;29.20
16806;BME280;8520;50.102;20.010;2023-04-24T12:34:58;96973.94;;;28.57;29.34
16806;BME280;8520;50.102;20.010;2023-04-24T12:37:33;96970.19;;;27.54;29.84
16806;BME280;8520;50.102;20.010;2023-04-24T12:40:04;96962.41;;;27.82;30.13
16806;BME280;8520;50.102;20.010;2023-04-24T12:42:34;96968.28;;;27.59;30.18
16806;BME280;8520;50.102;20.010;2023-04-24T12:45:04;96958.91;;;27.70;31.04
16806;BME280;8520;50.102;20.010;2023-04-24T12:47:33;96956.63;;;27.94;30.25
16806;BME280;8520;50.102;20.010;2023-04-24T12:50:02;96956.19;;;27.86;29.52
16806;BME280;8520;50.102;20.010;2023-04-24T12:52:31;96957.03;;;28.02;30.49
16806;BME280;8520;50.102;20.010;2023-04-24T12:55:00;96956.94;;;27.73;30.36
16806;BME280;8520;50.102;20.010;2023-04-24T12:57:29;96966.06;;;27.85;30.60
16806;BME280;8520;50.102;20.010;2023-04-24T12:59:58;96971.34;;;27.63;30.29
16806;BME280;8520;50.102;20.010;2023-04-24T13:02:28;96984.06;;;24.59;35.40
16806;BME280;8520;50.102;20.010;2023-04-24T13:04:58;96983.34;;;24.26;37.46
16806;BME280;8520;50.102;20.010;2023-04-24T13:07:27;96987.94;;;23.78;38.63
16806;BME280;8520;50.102;20.010;2023-04-24T13:09:56;96983.53;;;20.50;43.82
16806;BME280;8520;50.102;20.010;2023-04-24T13:12:25;97017.16;;;20.50;43.97
16806;BME280;8520;50.102;20.010;2023-04-24T13:14:53;96991.13;;;19.38;46.20
16806;BME280;8520;50.102;20.010;2023-04-24T13:17:22;96993.19;;;19.13;47.09